createdAt,value
2018-11-05T00:00:39.500Z,40.10
2018-11-05T00:03:11.949Z,40.20
2018-11-05T00:05:41.972Z,40.30
2018-11-05T00:08:12.211Z,40.10
2018-11-05T00:10:44.397Z,39.90
2018-11-05T00:13:14.534Z,40.00
2018-11-05T00:15:45.680Z,40.10
2018-11-05T00:18:15.722Z,40.90
2018-11-05T00:20:45.791Z,40.20
2018-11-05T00:23:16.193Z,40.60
2018-11-05T00:25:46.243Z,40.30
2018-11-05T00:28:16.275Z,40.20
2018-11-05T00:30:46.451Z,41.00
2018-11-05T00:33:18.748Z,40.50
2018-11-05T00:35:48.831Z,40.50
2018-11-05T00:38:20.062Z,40.20
2018-11-05T00:40:50.133Z,40.20
2018-11-05T00:43:20.166Z,40.20
2018-11-05T00:45:50.499Z,39.70
2018-11-05T00:48:20.543Z,39.80
2018-11-05T00:50:50.677Z,40.00
2018-11-05T00:53:20.856Z,39.90
2018-11-05T00:55:50.858Z,40.00
2018-11-05T00:58:20.910Z,40.00
2018-11-05T01:00:51.062Z,39.90
2018-11-05T01:03:23.921Z,39.80
2018-11-05T01:05:54.050Z,39.80
2018-11-05T01:08:24.214Z,39.90
2018-11-05T01:10:54.305Z,39.90
2018-11-05T01:13:26.954Z,39.60
2018-11-05T01:15:57.068Z,39.80
2018-11-05T01:18:27.092Z,39.90
2018-11-05T01:20:58.150Z,39.20
2018-11-05T01:23:28.277Z,39.20
2018-11-05T01:25:58.296Z,38.50
2018-11-05T01:28:29.659Z,38.20
2018-11-05T01:30:58.682Z,38.90
2018-11-05T01:33:28.720Z,38.10
2018-11-05T01:36:01.102Z,39.50
2018-11-05T01:38:31.118Z,40.00
2018-11-05T01:41:00.054Z,39.10
2018-11-05T01:43:30.476Z,40.30
2018-11-05T01:46:00.642Z,41.50
2018-11-05T01:48:30.666Z,42.10
2018-11-05T01:51:04.087Z,42.40
2018-11-05T01:53:38.187Z,42.70
2018-11-05T01:56:07.241Z,43.20
2018-11-05T01:58:37.358Z,43.60
2018-11-05T02:01:07.394Z,44.30
2018-11-05T02:03:38.710Z,44.70
2018-11-05T02:06:08.875Z,45.00
2018-11-05T02:08:39.026Z,44.90
2018-11-05T02:11:09.704Z,45.10
2018-11-05T02:13:48.700Z,45.30
2018-11-05T02:16:20.519Z,45.60
2018-11-05T02:18:53.287Z,44.70
2018-11-05T02:21:23.420Z,45.20
2018-11-05T02:23:57.650Z,45.30
2018-11-05T02:26:27.685Z,45.50
2018-11-05T02:28:57.726Z,45.30
2018-11-05T02:31:29.907Z,45.20
2018-11-05T02:34:00.141Z,45.40
2018-11-05T02:36:30.469Z,44.40
2018-11-05T02:39:03.089Z,44.60
2018-11-05T02:41:33.313Z,43.50
2018-11-05T02:44:03.332Z,43.40
2018-11-05T02:46:33.321Z,43.70
2018-11-05T02:49:03.424Z,45.00
2018-11-05T02:51:33.557Z,44.30
2018-11-05T02:54:04.669Z,43.50
2018-11-05T02:56:34.844Z,43.80
2018-11-05T02:59:04.901Z,44.80
2018-11-05T03:01:35.976Z,45.70
2018-11-05T03:04:12.382Z,46.40
2018-11-05T03:06:42.585Z,47.00
2018-11-05T03:09:14.516Z,47.20
2018-11-05T03:11:46.131Z,47.40
2018-11-05T03:14:16.256Z,47.80
2018-11-05T03:16:45.241Z,47.70
2018-11-05T03:19:15.487Z,48.00
2018-11-05T03:21:45.519Z,48.10
2018-11-05T03:24:17.621Z,48.90
2018-11-05T03:26:48.046Z,49.30
2018-11-05T03:29:20.336Z,50.00
2018-11-05T03:32:05.626Z,50.00
2018-11-05T03:34:42.742Z,49.90
2018-11-05T03:37:11.932Z,49.10
2018-11-05T03:39:44.538Z,47.50
2018-11-05T03:42:14.650Z,46.50
2018-11-05T03:44:44.983Z,45.50
2018-11-05T03:47:20.143Z,45.10
2018-11-05T03:49:50.745Z,44.80
2018-11-05T03:52:23.017Z,44.60
2018-11-05T03:54:53.157Z,44.30
2018-11-05T03:57:25.645Z,43.60
2018-11-05T03:59:55.622Z,43.60
2018-11-05T04:02:28.076Z,43.70
2018-11-05T04:05:03.610Z,43.20
2018-11-05T04:07:33.832Z,42.90
2018-11-05T04:10:03.956Z,42.50
2018-11-05T04:12:34.291Z,42.70
2018-11-05T04:15:04.455Z,42.70
2018-11-05T04:17:36.104Z,42.70
2018-11-05T04:20:09.811Z,42.90
2018-11-05T04:22:40.955Z,43.40
2018-11-05T04:25:09.387Z,43.30
2018-11-05T04:27:39.689Z,42.60
2018-11-05T04:30:12.288Z,42.90
2018-11-05T04:32:42.579Z,42.60
2018-11-05T04:35:12.939Z,42.60
2018-11-05T04:37:42.823Z,41.70
2018-11-05T04:40:12.864Z,42.10
2018-11-05T04:42:46.578Z,41.60
2018-11-05T04:45:15.121Z,42.30
2018-11-05T04:47:45.109Z,43.60
2018-11-05T04:53:09.138Z,42.50
2018-11-05T04:55:39.033Z,42.30
2018-11-05T04:58:08.980Z,41.60
2018-11-05T05:00:38.884Z,41.80
2018-11-05T05:03:08.992Z,41.70
2018-11-05T05:05:39.655Z,41.20
2018-11-05T05:08:09.846Z,41.00
2018-11-05T05:10:39.864Z,41.30
2018-11-05T05:13:10.263Z,41.40
2018-11-05T05:15:40.360Z,41.30
2018-11-05T05:18:10.295Z,41.40
2018-11-05T05:20:40.207Z,41.80
2018-11-05T05:23:10.279Z,41.60
2018-11-05T05:25:40.173Z,40.60
2018-11-05T05:28:11.239Z,40.80
2018-11-05T05:30:41.115Z,41.20
2018-11-05T05:33:11.106Z,41.00
2018-11-05T05:35:40.940Z,41.80
2018-11-05T05:38:10.844Z,41.90
2018-11-05T05:40:40.773Z,42.30
2018-11-05T05:43:11.545Z,41.70
2018-11-05T05:45:41.429Z,41.40
2018-11-05T05:48:11.308Z,41.50
2018-11-05T05:50:41.225Z,43.40
2018-11-05T05:53:11.090Z,42.90
2018-11-05T05:55:41.206Z,43.60
2018-11-05T05:58:11.384Z,41.80
2018-11-05T06:00:41.362Z,41.30
2018-11-05T06:03:11.397Z,41.90
2018-11-05T06:05:41.576Z,41.00
2018-11-05T06:08:11.507Z,40.90
2018-11-05T06:10:41.612Z,40.90
2018-11-05T06:13:11.673Z,42.30
2018-11-05T06:15:41.814Z,42.10
2018-11-05T06:18:11.914Z,42.70
2018-11-05T06:20:42.245Z,42.40
2018-11-05T06:23:12.303Z,41.00
2018-11-05T06:25:42.535Z,40.20
2018-11-05T06:28:13.131Z,39.30
2018-11-05T06:30:43.204Z,38.00
2018-11-05T06:33:13.247Z,35.90
2018-11-05T06:35:45.152Z,33.70
2018-11-05T06:38:15.357Z,31.40
2018-11-05T06:40:45.394Z,29.70
2018-11-05T06:43:15.365Z,28.40
2018-11-05T06:45:45.468Z,27.40
2018-11-05T06:48:15.406Z,25.90
2018-11-05T06:50:48.515Z,25.10
2018-11-05T06:53:18.390Z,24.30
2018-11-05T06:55:48.464Z,23.50
2018-11-05T06:58:18.640Z,22.70
2018-11-05T07:00:48.778Z,21.80
2018-11-05T07:03:18.862Z,21.70
2018-11-05T07:05:48.991Z,20.10
2018-11-05T07:08:19.047Z,19.20
2018-11-05T07:10:49.083Z,19.40
2018-11-05T07:13:19.256Z,19.10
2018-11-05T07:15:49.340Z,18.70
2018-11-05T07:18:19.527Z,18.00
2018-11-05T07:20:51.870Z,17.60
2018-11-05T07:23:22.114Z,17.10
2018-11-05T07:25:52.150Z,17.30
2018-11-05T07:28:23.105Z,16.60
2018-11-05T07:30:53.145Z,15.70
2018-11-05T07:33:23.158Z,16.10
2018-11-05T07:35:53.835Z,16.50
2018-11-05T07:38:23.854Z,16.10
2018-11-05T07:40:53.991Z,15.40
2018-11-05T07:43:24.658Z,15.10
2018-11-05T07:45:54.567Z,14.90
2018-11-05T07:48:24.447Z,14.00
2018-11-05T07:50:54.802Z,13.80
2018-11-05T07:53:24.779Z,14.40
2018-11-05T07:55:54.795Z,14.10
2018-11-05T07:58:27.810Z,13.90
2018-11-05T08:00:58.987Z,13.30
2018-11-05T08:03:30.773Z,13.40
2018-11-05T08:06:00.655Z,12.70
2018-11-05T08:08:30.601Z,12.20
2018-11-05T08:11:00.610Z,11.80
2018-11-05T08:13:30.510Z,12.20
2018-11-05T08:16:00.430Z,12.40
2018-11-05T08:18:30.368Z,11.80
2018-11-05T08:21:00.268Z,11.80
2018-11-05T08:23:30.173Z,10.80
2018-11-05T08:26:00.111Z,9.70
2018-11-05T08:28:29.995Z,8.80
2018-11-05T08:30:59.903Z,8.70
2018-11-05T08:33:30.530Z,8.20
2018-11-05T08:36:00.416Z,8.10
2018-11-05T08:38:30.313Z,8.00
2018-11-05T08:41:00.543Z,7.90
2018-11-05T08:43:30.428Z,7.60
2018-11-05T08:46:00.301Z,7.20
2018-11-05T08:48:30.248Z,7.20
2018-11-05T08:51:00.264Z,6.90
2018-11-05T08:53:30.058Z,6.60
2018-11-05T08:56:00.546Z,6.40
2018-11-05T08:58:30.455Z,5.80
2018-11-05T09:01:19.956Z,5.40
2018-11-05T09:03:51.118Z,5.70
2018-11-05T09:06:21.017Z,5.40
2018-11-05T09:08:50.920Z,5.10
2018-11-05T09:11:21.299Z,5.00
2018-11-05T09:13:52.864Z,5.10
2018-11-05T09:16:22.905Z,5.10
2018-11-05T09:18:52.965Z,5.40
2018-11-05T09:21:23.387Z,5.80
2018-11-05T09:23:53.345Z,6.40
2018-11-05T09:26:23.472Z,6.80
2018-11-05T09:28:53.436Z,7.70
2018-11-05T09:31:23.631Z,8.40
2018-11-05T09:33:53.660Z,9.20
2018-11-05T09:36:24.574Z,9.60
2018-11-05T09:38:54.459Z,10.20
2018-11-05T09:41:24.579Z,10.20
2018-11-05T09:43:54.997Z,10.80
2018-11-05T09:46:25.050Z,11.20
2018-11-05T09:48:55.097Z,10.60
2018-11-05T09:51:26.891Z,9.90
2018-11-05T09:53:57.099Z,9.30
2018-11-05T09:56:27.468Z,8.90
2018-11-05T09:58:57.416Z,7.80
2018-11-05T10:01:27.327Z,7.60
2018-11-05T10:03:58.039Z,6.80
2018-11-05T10:06:28.657Z,6.40
2018-11-05T10:08:58.528Z,6.00
2018-11-05T10:11:28.419Z,5.80
2018-11-05T10:13:58.571Z,6.00
2018-11-05T10:16:28.522Z,5.60
2018-11-05T10:18:58.339Z,5.40
2018-11-05T10:21:29.020Z,4.40
2018-11-05T10:23:58.918Z,4.30
2018-11-05T10:26:28.805Z,4.10
2018-11-05T10:28:58.736Z,4.10
2018-11-05T10:31:29.363Z,3.80
2018-11-05T10:33:59.251Z,4.20
2018-11-05T10:36:30.771Z,4.10
2018-11-05T10:39:00.637Z,3.80
2018-11-05T10:41:30.517Z,3.50
2018-11-05T10:44:00.578Z,3.70
2018-11-05T10:46:30.479Z,3.50
2018-11-05T10:49:00.460Z,3.40
2018-11-05T10:51:31.404Z,3.20
2018-11-05T10:54:01.250Z,3.00
2018-11-05T10:56:31.126Z,2.80
2018-11-05T10:59:01.966Z,2.70
2018-11-05T11:01:49.036Z,2.70
2018-11-05T11:04:35.504Z,2.50
2018-11-05T11:07:05.569Z,2.40
2018-11-05T11:09:35.492Z,2.30
2018-11-05T11:12:06.472Z,2.40
2018-11-05T11:14:36.355Z,2.30
2018-11-05T11:17:06.406Z,2.30
2018-11-05T11:19:37.669Z,2.40
2018-11-05T11:22:07.606Z,2.20
2018-11-05T11:24:37.468Z,2.40
2018-11-05T11:27:09.628Z,2.30
2018-11-05T11:29:39.498Z,2.20
2018-11-05T11:32:09.396Z,2.10
2018-11-05T11:34:40.449Z,2.30
2018-11-05T11:37:10.388Z,2.60
2018-11-05T11:39:40.191Z,3.00
2018-11-05T11:42:10.162Z,3.50
2018-11-05T11:44:40.392Z,4.30
2018-11-05T11:47:10.504Z,5.10
2018-11-05T11:49:40.835Z,5.30
2018-11-05T11:52:10.743Z,6.20
2018-11-05T11:54:40.609Z,7.10
2018-11-05T11:57:10.528Z,8.50
2018-11-05T11:59:40.411Z,8.90
2018-11-05T12:02:17.098Z,9.50
2018-11-05T12:04:46.991Z,10.40
2018-11-05T12:07:16.996Z,11.20
2018-11-05T12:09:46.945Z,12.00
2018-11-05T12:12:17.000Z,12.70
2018-11-05T12:17:17.450Z,13.60
2018-11-05T12:19:47.578Z,14.20
2018-11-05T12:22:17.721Z,14.20
2018-11-05T12:24:47.697Z,14.70
2018-11-05T12:27:17.598Z,14.90
2018-11-05T12:29:48.517Z,15.20
2018-11-05T12:32:18.581Z,15.10
2018-11-05T12:34:48.912Z,15.40
2018-11-05T12:37:20.403Z,15.10
2018-11-05T12:39:50.517Z,14.30
2018-11-05T12:42:20.447Z,14.10
2018-11-05T12:44:50.691Z,13.30
2018-11-05T12:47:20.694Z,13.80
2018-11-05T12:49:50.758Z,14.70
2018-11-05T12:52:20.746Z,14.50
2018-11-05T12:54:50.810Z,14.50
2018-11-05T12:57:21.464Z,14.20
2018-11-05T12:59:51.389Z,14.10
2018-11-05T13:02:24.919Z,14.50
2018-11-05T13:04:58.228Z,14.60
2018-11-05T13:07:28.103Z,14.40
2018-11-05T13:09:57.997Z,14.20
2018-11-05T13:12:28.233Z,14.50
2018-11-05T13:14:58.267Z,14.40
2018-11-05T13:17:28.168Z,14.30
2018-11-05T13:20:00.381Z,14.50
2018-11-05T13:22:30.319Z,14.70
2018-11-05T13:25:00.195Z,14.70
2018-11-05T13:27:30.678Z,14.30
2018-11-05T13:30:00.720Z,14.40
2018-11-05T13:32:30.748Z,14.40
2018-11-05T13:35:00.929Z,14.60
2018-11-05T13:37:31.291Z,14.70
2018-11-05T13:40:01.164Z,14.90
2018-11-05T13:42:32.228Z,14.40
2018-11-05T13:45:02.381Z,14.50
2018-11-05T13:47:33.169Z,14.50
2018-11-05T13:50:03.649Z,14.20
2018-11-05T13:52:33.733Z,14.10
2018-11-05T13:55:03.963Z,14.40
2018-11-05T13:57:34.109Z,14.50
2018-11-05T14:00:04.132Z,14.70
2018-11-05T14:02:33.969Z,15.20
2018-11-05T14:05:04.155Z,14.50
2018-11-05T14:07:34.080Z,14.60
2018-11-05T14:10:04.141Z,14.70
2018-11-05T14:12:34.223Z,14.80
2018-11-05T14:15:04.217Z,14.80
2018-11-05T14:17:34.338Z,15.00
2018-11-05T14:20:05.488Z,15.30
2018-11-05T14:22:35.636Z,15.40
2018-11-05T14:25:05.662Z,15.50
2018-11-05T14:27:36.653Z,15.60
2018-11-05T14:30:07.755Z,15.50
2018-11-05T14:32:37.517Z,15.50
2018-11-05T14:35:08.351Z,15.50
2018-11-05T14:37:38.236Z,15.60
2018-11-05T14:40:09.238Z,15.40
2018-11-05T14:42:39.578Z,15.70
2018-11-05T14:45:17.233Z,15.40
2018-11-05T14:47:48.455Z,15.60
2018-11-05T14:50:19.983Z,15.40
2018-11-05T14:52:49.980Z,15.30
2018-11-05T14:55:20.604Z,15.30
2018-11-05T14:57:51.599Z,15.50
2018-11-05T15:00:25.789Z,15.40
2018-11-05T15:02:56.707Z,15.70
2018-11-05T15:05:26.781Z,16.00
2018-11-05T15:07:57.624Z,16.20
2018-11-05T15:10:27.668Z,16.00
2018-11-05T15:12:57.691Z,16.00
2018-11-05T15:15:28.719Z,16.00
2018-11-05T15:17:58.611Z,16.20
2018-11-05T15:20:28.582Z,16.20
2018-11-05T15:22:58.911Z,16.20
2018-11-05T15:25:29.027Z,16.20
2018-11-05T15:27:59.130Z,16.20
2018-11-05T15:30:29.438Z,16.00
2018-11-05T15:32:59.629Z,16.00
2018-11-05T15:35:29.508Z,16.10
2018-11-05T15:38:00.598Z,16.70
2018-11-05T15:40:30.490Z,16.40
2018-11-05T15:43:00.388Z,16.30
2018-11-05T15:45:31.524Z,16.20
2018-11-05T15:48:01.643Z,16.30
2018-11-05T15:50:31.581Z,16.40
2018-11-05T15:53:02.437Z,16.50
2018-11-05T15:55:31.944Z,16.60
2018-11-05T15:58:01.981Z,17.50
2018-11-05T16:00:32.413Z,16.80
2018-11-05T16:03:02.909Z,17.00
2018-11-05T16:05:33.115Z,17.10
2018-11-05T16:08:03.459Z,16.30
2018-11-05T16:10:33.625Z,16.80
2018-11-05T16:13:03.629Z,17.10
2018-11-05T16:15:33.708Z,17.30
2018-11-05T16:18:03.913Z,17.50
2018-11-05T16:20:33.943Z,17.80
2018-11-05T16:23:04.174Z,17.80
2018-11-05T16:25:34.113Z,17.80
2018-11-05T16:28:03.977Z,17.70
2018-11-05T16:30:33.938Z,17.70
2018-11-05T16:33:03.867Z,18.00
2018-11-05T16:35:33.837Z,18.20
2018-11-05T16:38:05.564Z,17.70
2018-11-05T16:40:35.438Z,17.60
2018-11-05T16:43:05.322Z,18.00
2018-11-05T16:45:35.295Z,18.10
2018-11-05T16:48:05.140Z,17.80
2018-11-05T16:50:35.039Z,18.30
2018-11-05T16:53:05.810Z,18.10
2018-11-05T16:55:35.698Z,18.20
2018-11-05T16:58:05.726Z,18.60
2018-11-05T17:00:35.957Z,18.30
2018-11-05T17:03:06.746Z,18.90
2018-11-05T17:05:36.692Z,19.00
2018-11-05T17:08:07.322Z,19.00
2018-11-05T17:10:37.384Z,19.20
2018-11-05T17:13:07.682Z,19.50
2018-11-05T17:15:38.375Z,19.60
2018-11-05T17:18:08.303Z,19.90
2018-11-05T17:20:38.194Z,20.40
2018-11-05T17:23:08.167Z,20.60
2018-11-05T17:25:38.059Z,21.00
2018-11-05T17:28:07.981Z,21.30
2018-11-05T17:30:38.258Z,21.50
2018-11-05T17:33:27.112Z,21.80
2018-11-05T17:35:57.568Z,22.00
2018-11-05T17:38:27.624Z,22.30
2018-11-05T17:40:57.651Z,22.40
2018-11-05T17:43:27.593Z,22.90
2018-11-05T17:45:57.462Z,23.20
2018-11-05T17:48:27.396Z,23.70
2018-11-05T17:50:57.836Z,23.90
2018-11-05T17:53:27.584Z,24.20
2018-11-05T17:55:57.471Z,24.80
2018-11-05T17:58:29.622Z,25.00
2018-11-05T18:00:59.520Z,25.70
2018-11-05T18:03:29.408Z,26.20
2018-11-05T18:06:00.098Z,26.50
2018-11-05T18:08:30.001Z,26.90
2018-11-05T18:10:59.924Z,27.50
2018-11-05T18:13:30.076Z,28.00
2018-11-05T18:16:00.061Z,28.20
2018-11-05T18:18:29.978Z,28.60
2018-11-05T18:21:00.774Z,28.80
2018-11-05T18:23:30.683Z,29.00
2018-11-05T18:26:00.585Z,29.60
2018-11-05T18:28:30.855Z,29.10
2018-11-05T18:33:31.036Z,29.40
2018-11-05T18:36:02.046Z,30.00
2018-11-05T18:38:31.929Z,29.40
2018-11-05T18:41:01.854Z,29.50
2018-11-05T18:43:32.675Z,30.00
2018-11-05T18:46:02.617Z,29.50
2018-11-05T18:48:32.768Z,29.70
2018-11-05T18:51:03.006Z,29.70
2018-11-05T18:53:32.951Z,30.00
2018-11-05T18:56:02.846Z,30.20
2018-11-05T18:58:33.090Z,30.10
2018-11-05T19:01:02.977Z,30.20
2018-11-05T19:03:33.069Z,30.10
2018-11-05T19:06:03.144Z,30.20
2018-11-05T19:08:33.974Z,30.50
2018-11-05T19:11:04.697Z,30.30
2018-11-05T19:13:34.628Z,30.30
2018-11-05T19:16:04.592Z,30.40
2018-11-05T19:18:34.679Z,30.30
2018-11-05T19:21:04.577Z,30.70
2018-11-05T19:23:34.655Z,30.50
2018-11-05T19:26:05.265Z,30.90
2018-11-05T19:28:35.279Z,31.00
2018-11-05T19:31:05.159Z,31.20
2018-11-05T19:33:35.687Z,31.70
2018-11-05T19:36:06.615Z,31.30
2018-11-05T19:38:36.562Z,31.80
2018-11-05T19:41:11.277Z,31.80
2018-11-05T19:43:41.143Z,32.00
2018-11-05T19:46:11.045Z,32.30
2018-11-05T19:48:41.219Z,32.40
2018-11-05T19:51:11.139Z,32.60
2018-11-05T19:53:41.315Z,32.20
2018-11-05T19:56:12.355Z,32.30
2018-11-05T19:58:42.410Z,31.90
2018-11-05T20:01:12.538Z,31.90
2018-11-05T20:03:43.092Z,31.90
2018-11-05T20:06:13.039Z,31.70
2018-11-05T20:08:43.055Z,31.80
2018-11-05T20:11:13.253Z,31.80
2018-11-05T20:13:43.287Z,31.80
2018-11-05T20:16:13.380Z,31.80
2018-11-05T20:18:45.590Z,31.70
2018-11-05T20:21:15.618Z,31.60
2018-11-05T20:23:45.823Z,31.60
2018-11-05T20:26:16.508Z,31.90
2018-11-05T20:28:46.662Z,31.80
2018-11-05T20:31:16.745Z,32.00
2018-11-05T20:33:49.862Z,31.70
2018-11-05T20:36:19.880Z,31.70
2018-11-05T20:38:50.014Z,32.40
2018-11-05T20:41:20.936Z,32.70
2018-11-05T20:43:51.007Z,33.10
2018-11-05T20:46:21.172Z,33.50
2018-11-05T20:48:52.514Z,33.80
2018-11-05T20:51:22.420Z,34.90
2018-11-05T20:53:52.489Z,34.20
2018-11-05T20:56:23.459Z,34.30
2018-11-05T20:58:53.696Z,34.90
2018-11-05T21:01:25.587Z,35.40
2018-11-05T21:03:57.509Z,35.50
2018-11-05T21:06:27.437Z,36.00
2018-11-05T21:08:57.653Z,36.10
2018-11-05T21:11:27.612Z,36.20
2018-11-05T21:13:57.510Z,36.50
2018-11-05T21:16:27.440Z,36.70
2018-11-05T21:18:57.873Z,37.00
2018-11-05T21:21:27.976Z,37.10
2018-11-05T21:23:58.083Z,37.00
2018-11-05T21:26:29.353Z,37.50
2018-11-05T21:28:59.397Z,37.80
2018-11-05T21:31:29.409Z,37.90
2018-11-05T21:36:29.795Z,37.90
2018-11-05T21:38:59.939Z,37.90
2018-11-05T21:41:30.341Z,37.40
2018-11-05T21:44:00.390Z,37.00
2018-11-05T21:46:30.544Z,37.00
2018-11-05T21:49:00.712Z,37.00
2018-11-05T21:51:30.759Z,37.00
2018-11-05T21:54:00.839Z,36.60
2018-11-05T21:56:30.962Z,36.70
2018-11-05T21:59:01.015Z,36.30
2018-11-05T22:01:31.152Z,36.10
2018-11-05T22:04:02.078Z,36.10
2018-11-05T22:06:32.045Z,36.10
2018-11-05T22:09:02.081Z,36.50
2018-11-05T22:11:32.413Z,36.20
2018-11-05T22:14:02.451Z,36.20
2018-11-05T22:16:32.584Z,37.40
2018-11-05T22:19:03.785Z,36.60
2018-11-05T22:21:33.874Z,36.20
2018-11-05T22:24:03.813Z,37.60
2018-11-05T22:26:34.051Z,38.20
2018-11-05T22:29:04.186Z,39.10
2018-11-05T22:31:34.231Z,39.30
2018-11-05T22:34:04.951Z,39.70
2018-11-05T22:36:35.007Z,40.20
2018-11-05T22:39:05.204Z,40.70
2018-11-05T22:41:35.218Z,41.20
2018-11-05T22:44:05.346Z,41.80
2018-11-05T22:46:35.441Z,42.20
2018-11-05T22:49:06.197Z,42.50
2018-11-05T22:51:36.231Z,41.90
2018-11-05T22:54:06.222Z,41.20
2018-11-05T22:56:37.014Z,40.50
2018-11-05T22:59:06.918Z,40.20
2018-11-05T23:01:57.248Z,40.00
2018-11-05T23:04:27.273Z,39.80
2018-11-05T23:06:57.165Z,39.90
2018-11-05T23:09:28.929Z,39.90
2018-11-05T23:11:58.804Z,40.10
2018-11-05T23:14:28.684Z,40.00
2018-11-05T23:16:58.914Z,40.20
2018-11-05T23:19:29.010Z,40.70
2018-11-05T23:21:59.055Z,40.90
2018-11-05T23:24:29.463Z,40.50
2018-11-05T23:26:59.529Z,39.60
2018-11-05T23:29:29.428Z,39.30
2018-11-05T23:31:59.550Z,39.00
2018-11-05T23:34:29.444Z,38.80
2018-11-05T23:36:59.359Z,38.90
2018-11-05T23:39:29.341Z,38.90
2018-11-05T23:41:59.529Z,39.10
2018-11-05T23:44:29.564Z,39.40
2018-11-05T23:47:00.611Z,39.10
2018-11-05T23:49:30.646Z,38.40
2018-11-05T23:52:00.767Z,38.80
2018-11-05T23:54:30.854Z,38.70
2018-11-05T23:57:01.070Z,38.20
2018-11-05T23:59:31.092Z,38.00
